Time;durP1;ratioP1;P1;durP2;ratioP2;P2;SDS_P1;SDS_P2;PMS_P1;PMS_P2;Temp;Humidity;BMP_temperature;BMP_pressure;BME280_temperature;BME280_humidity;BME280_pressure;Samples;Min_cycle;Max_cycle;Signal;HPM_P1;HPM_P2
2023/04/18 00:03:05;;;;;;;;;;;;;;;7.94;74.8418;102953.1;;;;-68
2023/04/18 00:07:50;;;;;;;11.7;6.4;;;;;;;;;;;;;-70
2023/04/18 00:08:04;;;;;;;;;;;;;;;7.86;74.70605;102951.1;;;;-69
2023/04/18 00:13:05;;;;;;;;;;;;;;;7.87;74.37793;102952.3;;;;-71
2023/04/18 00:18:07;;;;;;;;;;;;;;;7.82;73.96094;102949.3;;;;-69
2023/04/18 00:23:05;;;;;;;;;;;;;;;7.81;73.90527;102953.2;;;;-69
2023/04/18 00:28:05;;;;;;;;;;;;;;;7.77;74.1416;102954.2;;;;-70
2023/04/18 00:33:05;;;;;;;;;;;;;;;7.72;73.66797;102952.9;;;;-70
2023/04/18 00:37:54;;;;;;;13.2;5.8;;;;;;;;;;;;;-69
2023/04/18 00:38:04;;;;;;;;;;;;;;;7.69;73.56641;102955;;;;-69
2023/04/18 00:43:05;;;;;;;;;;;;;;;7.68;73.23438;102950.3;;;;-69
2023/04/18 00:48:04;;;;;;;;;;;;;;;7.61;73.34277;102941.4;;;;-71
2023/04/18 00:53:05;;;;;;;;;;;;;;;7.62;73.0791;102942.2;;;;-68
2023/04/18 00:58:05;;;;;;;;;;;;;;;7.57;72.38867;102943.9;;;;-71
2023/04/18 01:03:07;;;;;;;;;;;;;;;7.5;72.52051;102939.9;;;;-71
2023/04/18 01:07:57;;;;;;;13.5;6.3;;;;;;;;;;;;;-72
2023/04/18 01:08:07;;;;;;;;;;;;;;;7.48;72.47363;102937.9;;;;-71
2023/04/18 01:13:18;;;;;;;;;;;;;;;7.45;72.68652;102941.4;;;;-69
2023/04/18 01:18:06;;;;;;;;;;;;;;;7.4;72.5918;102936.1;;;;-70
2023/04/18 01:23:06;;;;;;;;;;;;;;;7.36;72.21191;102932.6;;;;-70
2023/04/18 01:28:06;;;;;;;;;;;;;;;7.32;72.03906;102926.9;;;;-71
2023/04/18 01:33:05;;;;;;;;;;;;;;;7.34;72.16309;102926.6;;;;-69
2023/04/18 01:37:53;;;;;;;14.8;6.4;;;;;;;;;;;;;-70
2023/04/18 01:38:10;;;;;;;;;;;;;;;7.23;72.14648;102917.7;;;;-70
2023/04/18 01:43:04;;;;;;;;;;;;;;;7.21;71.82324;102915.1;;;;-69
2023/04/18 01:48:04;;;;;;;;;;;;;;;7.21;71.84375;102912.9;;;;-70
2023/04/18 01:53:05;;;;;;;;;;;;;;;7.19;71.81934;102914.9;;;;-69
2023/04/18 01:58:04;;;;;;;;;;;;;;;7.15;72.13086;102909.3;;;;-70
2023/04/18 02:03:05;;;;;;;;;;;;;;;7.12;72.03906;102911.4;;;;-69
2023/04/18 02:07:54;;;;;;;15.6;6.3;;;;;;;;;;;;;-69
2023/04/18 02:08:05;;;;;;;;;;;;;;;7.09;71.8916;102905.1;;;;-71
2023/04/18 02:13:05;;;;;;;;;;;;;;;7.06;71.74414;102909.1;;;;-70
2023/04/18 02:18:05;;;;;;;;;;;;;;;7.03;71.93555;102902.8;;;;-69
2023/04/18 02:23:07;;;;;;;;;;;;;;;7.04;71.81641;102904.7;;;;-68
2023/04/18 02:28:05;;;;;;;;;;;;;;;7.03;72.07715;102902.9;;;;-69
2023/04/18 02:33:15;;;;;;;;;;;;;;;6.99;72.10449;102901;;;;-69
2023/04/18 02:37:55;;;;;;;13.8;6.3;;;;;;;;;;;;;-69
2023/04/18 02:38:05;;;;;;;;;;;;;;;6.95;72.21875;102900.3;;;;-70
2023/04/18 02:43:05;;;;;;;;;;;;;;;6.92;72.44531;102903.3;;;;-70
2023/04/18 02:48:06;;;;;;;;;;;;;;;6.89;72.81445;102901.5;;;;-70
2023/04/18 02:53:05;;;;;;;;;;;;;;;6.84;72.6748;102917.8;;;;-68
2023/04/18 02:58:05;;;;;;;;;;;;;;;6.82;72.80273;102918.8;;;;-70
2023/04/18 03:03:06;;;;;;;;;;;;;;;6.76;72.84863;102918;;;;-69
2023/04/18 03:07:59;;;;;;;15.4;7.1;;;;;;;;;;;;;-70
2023/04/18 03:08:09;;;;;;;;;;;;;;;6.72;72.87402;102912.6;;;;-72
2023/04/18 03:13:04;;;;;;;;;;;;;;;6.68;72.79102;102915.2;;;;-70
2023/04/18 03:18:05;;;;;;;;;;;;;;;6.68;72.60254;102916.8;;;;-70
2023/04/18 03:23:04;;;;;;;;;;;;;;;6.66;72.91895;102918;;;;-70
2023/04/18 03:28:04;;;;;;;;;;;;;;;6.63;72.83594;102921.8;;;;-69
2023/04/18 03:33:15;;;;;;;;;;;;;;;6.61;72.93262;102919.4;;;;-70
2023/04/18 03:37:56;;;;;;;15.9;7.3;;;;;;;;;;;;;-68
2023/04/18 03:38:07;;;;;;;;;;;;;;;6.62;72.79102;102913.8;;;;-70
2023/04/18 03:43:08;;;;;;;;;;;;;;;6.61;72.94336;102922.9;;;;-69
2023/04/18 03:48:05;;;;;;;;;;;;;;;6.58;73.21289;102926;;;;-70
2023/04/18 03:53:04;;;;;;;;;;;;;;;6.53;73.30273;102923.4;;;;-70
2023/04/18 03:58:07;;;;;;;;;;;;;;;6.51;73.44434;102918.4;;;;-69
2023/04/18 04:03:05;;;;;;;;;;;;;;;6.49;73.91211;102923.6;;;;-69
2023/04/18 04:07:57;;;;;;;16;6.6;;;;;;;;;;;;;-68
2023/04/18 04:08:08;;;;;;;;;;;;;;;6.46;73.91797;102927.8;;;;-70
2023/04/18 04:13:05;;;;;;;;;;;;;;;6.49;73.9668;102932.1;;;;-69
2023/04/18 04:18:05;;;;;;;;;;;;;;;6.49;73.80078;102936.3;;;;-69
2023/04/18 04:23:05;;;;;;;;;;;;;;;6.51;74.03516;102944.3;;;;-70
2023/04/18 04:28:05;;;;;;;;;;;;;;;6.53;74.09375;102947;;;;-69
2023/04/18 04:33:07;;;;;;;;;;;;;;;6.53;74.32422;102941.8;;;;-69
2023/04/18 04:38:01;;;;;;;13.7;6.5;;;;;;;;;;;;;-69
2023/04/18 04:38:11;;;;;;;;;;;;;;;6.58;74.23438;102931.1;;;;-71
2023/04/18 04:43:05;;;;;;;;;;;;;;;6.67;74.24902;102948.4;;;;-70
2023/04/18 04:48:08;;;;;;;;;;;;;;;6.72;74.40137;102948.4;;;;-69
2023/04/18 04:53:05;;;;;;;;;;;;;;;6.76;74.14355;102945.4;;;;-69
2023/04/18 04:58:07;;;;;;;;;;;;;;;6.79;74.4248;102951.2;;;;-69
2023/04/18 05:03:05;;;;;;;;;;;;;;;6.82;74.44043;102951.4;;;;-69
2023/04/18 05:07:59;;;;;;;13.7;6.2;;;;;;;;;;;;;-69
2023/04/18 05:08:09;;;;;;;;;;;;;;;6.81;74.42773;102959.4;;;;-70
2023/04/18 05:13:08;;;;;;;;;;;;;;;6.81;74.51367;102960.7;;;;-69
2023/04/18 05:18:07;;;;;;;;;;;;;;;6.77;74.67383;102962.4;;;;-69
2023/04/18 05:23:05;;;;;;;;;;;;;;;6.77;74.48535;102962.6;;;;-70
2023/04/18 05:28:07;;;;;;;;;;;;;;;6.81;74.81055;102956.4;;;;-69
2023/04/18 05:33:06;;;;;;;;;;;;;;;6.8;74.45703;102961.5;;;;-70
2023/04/18 05:38:00;;;;;;;12.2;6.1;;;;;;;;;;;;;-69
2023/04/18 05:38:10;;;;;;;;;;;;;;;6.78;74.8291;102962.6;;;;-70
2023/04/18 05:43:05;;;;;;;;;;;;;;;6.84;74.80762;102965.3;;;;-69
2023/04/18 05:48:06;;;;;;;;;;;;;;;6.92;74.66602;102970.9;;;;-71
2023/04/18 05:53:07;;;;;;;;;;;;;;;6.98;74.62207;102972.7;;;;-72
2023/04/18 05:58:04;;;;;;;;;;;;;;;7.04;74.74121;102980.7;;;;-69
2023/04/18 06:03:05;;;;;;;;;;;;;;;7.1;74.74023;102978.4;;;;-68
2023/04/18 06:08:04;;;;;;;10.5;5.6;;;;;;;;;;;;;-69
2023/04/18 06:08:15;;;;;;;;;;;;;;;7.14;74.62695;102980.4;;;;-72
2023/04/18 06:13:09;;;;;;;;;;;;;;;7.21;74.62793;102981.8;;;;-70
2023/04/18 06:18:04;;;;;;;;;;;;;;;7.28;74.78223;102984.5;;;;-70
2023/04/18 06:23:07;;;;;;;;;;;;;;;7.32;74.53711;102991.2;;;;-69
2023/04/18 06:28:04;;;;;;;;;;;;;;;7.37;74.75586;102983.5;;;;-69
2023/04/18 06:33:09;;;;;;;;;;;;;;;7.42;74.47754;102988.1;;;;-71
2023/04/18 06:38:02;;;;;;;11.5;5.3;;;;;;;;;;;;;-69
2023/04/18 06:38:13;;;;;;;;;;;;;;;7.44;74.68945;102985.8;;;;-69
2023/04/18 06:43:04;;;;;;;;;;;;;;;7.53;74.39551;103000.4;;;;-69
2023/04/18 06:48:09;;;;;;;;;;;;;;;7.63;74.53516;103000.2;;;;-69
2023/04/18 06:53:04;;;;;;;;;;;;;;;7.83;74.30664;103002.4;;;;-69
2023/04/18 06:58:07;;;;;;;;;;;;;;;8.04;74.33008;103009.7;;;;-70
2023/04/18 07:03:11;;;;;;;;;;;;;;;8.19;73.54102;103009.1;;;;-70
2023/04/18 07:08:03;;;;;;;10.7;5.6;;;;;;;;;;;;;-71
2023/04/18 07:08:12;;;;;;;;;;;;;;;8.26;73.77344;103010.1;;;;-71
2023/04/18 07:13:04;;;;;;;;;;;;;;;8.25;73.71387;103013.1;;;;-69
2023/04/18 07:18:04;;;;;;;;;;;;;;;8.24;73.79102;103003.7;;;;-69
2023/04/18 07:23:05;;;;;;;;;;;;;;;8.3;73.71191;103008.1;;;;-69
2023/04/18 07:28:07;;;;;;;;;;;;;;;8.36;73.80176;103012;;;;-70
2023/04/18 07:33:05;;;;;;;;;;;;;;;8.46;73.48633;103004;;;;-69
2023/04/18 07:38:04;;;;;;;11.1;5.2;;;;;;;;;;;;;-70
2023/04/18 07:38:14;;;;;;;;;;;;;;;8.57;72.9873;103008.1;;;;-71
2023/04/18 07:43:04;;;;;;;;;;;;;;;8.64;72.7002;103008.3;;;;-70
2023/04/18 07:48:07;;;;;;;;;;;;;;;8.69;72.77344;103011.5;;;;-70
2023/04/18 07:53:05;;;;;;;;;;;;;;;8.74;72.66113;103004;;;;-69
2023/04/18 07:58:04;;;;;;;;;;;;;;;8.82;72.36426;103001.2;;;;-69
2023/04/18 08:03:04;;;;;;;;;;;;;;;8.89;72.11133;103003.1;;;;-71
2023/04/18 08:08:05;;;;;;;;;;;;;;;8.96;72.15625;103004.3;;;;-70
2023/04/18 08:08:15;;;;;;;9.2;5.1;;;;;;;;;;;;;-70
2023/04/18 08:13:09;;;;;;;;;;;;;;;9.13;72.2627;103001;;;;-69
2023/04/18 08:18:04;;;;;;;;;;;;;;;9.97;72.23535;103010.7;;;;-70
2023/04/18 08:23:04;;;;;;;;;;;;;;;10.7;70.34863;103004.6;;;;-70
2023/04/18 08:28:07;;;;;;;;;;;;;;;11.45;68.52246;102998.1;;;;-68
2023/04/18 08:33:07;;;;;;;;;;;;;;;11.62;66.94434;102996.7;;;;-69
2023/04/18 08:38:05;;;;;;;;;;;;;;;11.63;67.06836;103005;;;;-71
2023/04/18 08:38:16;;;;;;;12.1;5.2;;;;;;;;;;;;;-71
2023/04/18 08:43:06;;;;;;;;;;;;;;;12.06;66.88867;103004.1;;;;-70
2023/04/18 08:48:05;;;;;;;;;;;;;;;12.62;65.86035;103001.3;;;;-70
2023/04/18 08:53:04;;;;;;;;;;;;;;;12.76;64.96289;103002.1;;;;-70
2023/04/18 08:58:06;;;;;;;;;;;;;;;13.08;64.85352;103009;;;;-69
2023/04/18 09:03:05;;;;;;;;;;;;;;;13.37;63.60059;103000;;;;-71
2023/04/18 09:08:14;;;;;;;;;;;;;;;13.28;63.2959;102998.8;;;;-70
2023/04/18 09:08:30;;;;;;;9.9;5;;;;;;;;;;;;;-70
2023/04/18 09:13:08;;;;;;;;;;;;;;;13.05;63.3623;103003;;;;-72
2023/04/18 09:18:05;;;;;;;;;;;;;;;12.89;63.99805;103002.6;;;;-69
2023/04/18 09:23:09;;;;;;;;;;;;;;;12.8;63.41602;103000.5;;;;-69
2023/04/18 09:28:05;;;;;;;;;;;;;;;12.87;64.23047;102993;;;;-72
2023/04/18 09:33:06;;;;;;;;;;;;;;;13.44;64.20215;102990.6;;;;-69
2023/04/18 09:38:04;;;;;;;;;;;;;;;14.09;63.06543;102997.5;;;;-69
2023/04/18 09:38:15;;;;;;;8.7;5.3;;;;;;;;;;;;;-69
2023/04/18 09:43:14;;;;;;;;;;;;;;;14.55;61.31152;102986.3;;;;-69
2023/04/18 09:48:04;;;;;;;;;;;;;;;14.48;61.48242;102992.4;;;;-70
2023/04/18 09:53:12;;;;;;;;;;;;;;;14.15;60.86328;102993.5;;;;-69
2023/04/18 09:58:07;;;;;;;;;;;;;;;13.8;61.27344;102990.3;;;;-69
2023/04/18 10:03:08;;;;;;;;;;;;;;;13.59;62.64453;102984.9;;;;-73
2023/04/18 10:08:09;;;;;;;;;;;;;;;13.58;62.47656;102984.9;;;;-71
2023/04/18 10:08:19;;;;;;;11.7;5.3;;;;;;;;;;;;;-71
2023/04/18 10:13:05;;;;;;;;;;;;;;;13.7;61.57324;102987.8;;;;-68
2023/04/18 10:18:08;;;;;;;;;;;;;;;13.86;62.16992;102978.5;;;;-68
2023/04/18 10:23:14;;;;;;;;;;;;;;;14.14;62.87012;102975.4;;;;-70
2023/04/18 10:28:05;;;;;;;;;;;;;;;14.4;62.44629;102972.2;;;;-70
2023/04/18 10:33:15;;;;;;;;;;;;;;;14.7;61.79297;102972.8;;;;-75
2023/04/18 10:38:05;;;;;;;;;;;;;;;15.02;61.75977;102964.2;;;;-74
2023/04/18 10:38:26;;;;;;;9.3;5.7;;;;;;;;;;;;;-74
2023/04/18 10:43:05;;;;;;;;;;;;;;;15.43;62.50488;102959.9;;;;-72
2023/04/18 10:48:16;;;;;;;;;;;;;;;15.7;62.33984;102955.9;;;;-72
2023/04/18 10:53:08;;;;;;;;;;;;;;;16.01;62.03418;102949.3;;;;-73
2023/04/18 10:58:05;;;;;;;;;;;;;;;16.43;62.25098;102942.3;;;;-73
2023/04/18 11:03:07;;;;;;;;;;;;;;;16.69;61.99316;102942.6;;;;-73
2023/04/18 11:08:22;;;;;;;;;;;;;;;16.88;61.29883;102950.7;;;;-73
2023/04/18 11:08:35;;;;;;;9.2;5.5;;;;;;;;;;;;;-73
2023/04/18 11:13:11;;;;;;;;;;;;;;;16.8;60.29395;102946.6;;;;-73
2023/04/18 11:18:06;;;;;;;;;;;;;;;16.44;57.94043;102941.2;;;;-72
2023/04/18 11:23:06;;;;;;;;;;;;;;;16.1;60.07422;102945.5;;;;-73
2023/04/18 11:28:19;;;;;;;;;;;;;;;15.81;60.85742;102939.6;;;;-72
2023/04/18 11:35:53;;;;;;;;;;;;;;;15.61;60.94238;102940.4;;;;-73
2023/04/18 11:54:45;;;;;;;;;;;;;;;15.91;60.41992;102926;;;;-74
2023/04/18 11:59:50;;;;;;;;;;;;;;;16.05;60.5293;102921.3;;;;-74
2023/04/18 12:08:28;;;;;;;12.7;7.2;;;;;;;;;;;;;-74
2023/04/18 12:09:57;;;;;;;;;;;;;;;16.82;61.36914;102917.3;;;;-74
2023/04/18 12:15:09;;;;;;;;;;;;;;;17.3;60.33984;102917.6;;;;-74
2023/04/18 12:29:23;;;;;;;;;;;;;;;17.7;60.23438;102918;;;;-75
2023/04/18 12:34:03;;;;;;;;;;;;;;;17.94;58.6582;102924.8;;;;-75
2023/04/18 12:38:26;;;;;;;13.8;7.7;;;;;;;;;;;;;-74
2023/04/18 12:39:05;;;;;;;;;;;;;;;17.67;59.82422;102914.3;;;;-76
2023/04/18 12:44:03;;;;;;;;;;;;;;;17.49;60.08301;102918.3;;;;-70
2023/04/18 12:49:05;;;;;;;;;;;;;;;17.37;59.28516;102907.4;;;;-72
2023/04/18 12:54:03;;;;;;;;;;;;;;;17.27;59.40723;102906.4;;;;-70
2023/04/18 12:59:05;;;;;;;;;;;;;;;17.34;60.03809;102903.2;;;;-68
2023/04/18 13:04:03;;;;;;;;;;;;;;;17.28;59.64648;102905.1;;;;-70
2023/04/18 13:08:30;;;;;;;13.4;8;;;;;;;;;;;;;-69
2023/04/18 13:09:03;;;;;;;;;;;;;;;17.25;60.23047;102911.1;;;;-70
2023/04/18 13:14:03;;;;;;;;;;;;;;;17.49;60.39844;102909.8;;;;-69
2023/04/18 13:19:04;;;;;;;;;;;;;;;17.68;59.38281;102900.3;;;;-69
2023/04/18 13:24:04;;;;;;;;;;;;;;;17.62;58.25391;102899.7;;;;-69
2023/04/18 13:29:03;;;;;;;;;;;;;;;17.68;59.7002;102897;;;;-69
2023/04/18 13:34:06;;;;;;;;;;;;;;;17.86;59.72363;102891.9;;;;-69
2023/04/18 13:38:34;;;;;;;14.5;8.3;;;;;;;;;;;;;-70
2023/04/18 13:39:04;;;;;;;;;;;;;;;18.09;58.56543;102890.4;;;;-69
2023/04/18 13:44:03;;;;;;;;;;;;;;;18.24;58.04102;102898.7;;;;-69
2023/04/18 13:49:03;;;;;;;;;;;;;;;18.3;58.95605;102883;;;;-69
2023/04/18 13:54:03;;;;;;;;;;;;;;;18.49;58.58301;102907.4;;;;-70
2023/04/18 13:59:03;;;;;;;;;;;;;;;18.56;59.04785;102883.7;;;;-70
2023/04/18 14:04:06;;;;;;;;;;;;;;;18.64;58.87695;102873;;;;-69
2023/04/18 14:08:34;;;;;;;14;8.3;;;;;;;;;;;;;-72
2023/04/18 14:09:03;;;;;;;;;;;;;;;18.67;59.86719;102869.9;;;;-69
2023/04/18 14:14:03;;;;;;;;;;;;;;;18.88;59.26074;102872.6;;;;-70
2023/04/18 14:19:03;;;;;;;;;;;;;;;18.95;58.35059;102869.6;;;;-68
2023/04/18 14:24:03;;;;;;;;;;;;;;;19.06;59.65918;102863.5;;;;-68
2023/04/18 14:29:04;;;;;;;;;;;;;;;19.06;59.13574;102855.6;;;;-69
2023/04/18 14:34:04;;;;;;;;;;;;;;;19.07;59.44531;102854.5;;;;-68
2023/04/18 14:38:37;;;;;;;12;8.3;;;;;;;;;;;;;-69
2023/04/18 14:39:04;;;;;;;;;;;;;;;19.06;59.23828;102850.5;;;;-73
2023/04/18 14:44:03;;;;;;;;;;;;;;;19.16;59.3418;102848.4;;;;-69
2023/04/18 14:49:03;;;;;;;;;;;;;;;19.31;58.76172;102853.3;;;;-69
2023/04/18 14:54:03;;;;;;;;;;;;;;;19.37;58.48535;102846.4;;;;-72
2023/04/18 14:59:03;;;;;;;;;;;;;;;19.44;58.40332;102837.6;;;;-70
2023/04/18 15:04:06;;;;;;;;;;;;;;;19.46;57.51953;102837.1;;;;-69
2023/04/18 15:08:40;;;;;;;13.5;8.2;;;;;;;;;;;;;-69
2023/04/18 15:09:06;;;;;;;;;;;;;;;19.38;57.15625;102835.5;;;;-69
2023/04/18 15:14:03;;;;;;;;;;;;;;;19.29;57.55273;102834.2;;;;-70
2023/04/18 15:19:03;;;;;;;;;;;;;;;19.3;56.79395;102829.2;;;;-69
2023/04/18 15:24:03;;;;;;;;;;;;;;;19.31;57.94238;102819.4;;;;-68
2023/04/18 15:29:04;;;;;;;;;;;;;;;19.27;57.66504;102823.1;;;;-70
2023/04/18 15:34:03;;;;;;;;;;;;;;;19.25;57.83301;102820.3;;;;-69
2023/04/18 15:38:44;;;;;;;13.6;8.1;;;;;;;;;;;;;-69
2023/04/18 15:39:08;;;;;;;;;;;;;;;19.34;57.50293;102818.6;;;;-72
2023/04/18 15:44:03;;;;;;;;;;;;;;;19.27;57.46094;102823.1;;;;-69
2023/04/18 15:49:03;;;;;;;;;;;;;;;19.16;56.61719;102812.7;;;;-70
2023/04/18 15:54:03;;;;;;;;;;;;;;;19.13;56.4082;102810.5;;;;-69
2023/04/18 15:59:04;;;;;;;;;;;;;;;19.08;57.21973;102811.4;;;;-68
2023/04/18 16:04:03;;;;;;;;;;;;;;;19.12;56.99902;102814.7;;;;-69
2023/04/18 16:08:47;;;;;;;13.4;8.3;;;;;;;;;;;;;-68
2023/04/18 16:09:05;;;;;;;;;;;;;;;19.06;56.68262;102807.9;;;;-70
2023/04/18 16:14:03;;;;;;;;;;;;;;;18.88;56.92188;102816;;;;-69
2023/04/18 16:19:05;;;;;;;;;;;;;;;18.77;57.60059;102809;;;;-69
2023/04/18 16:24:03;;;;;;;;;;;;;;;18.75;57.53027;102813.1;;;;-68
2023/04/18 16:29:03;;;;;;;;;;;;;;;18.71;58.30664;102813.1;;;;-69
2023/04/18 16:34:14;;;;;;;;;;;;;;;18.66;56.76855;102809.5;;;;-70
2023/04/18 16:38:50;;;;;;;13.2;7.9;;;;;;;;;;;;;-69
2023/04/18 16:39:04;;;;;;;;;;;;;;;18.61;57.38574;102809.4;;;;-68
2023/04/18 16:44:03;;;;;;;;;;;;;;;18.43;57.44238;102817.4;;;;-71
2023/04/18 16:49:03;;;;;;;;;;;;;;;18.29;56.82227;102816.5;;;;-69
2023/04/18 16:54:03;;;;;;;;;;;;;;;18.1;56.44727;102817.9;;;;-69
2023/04/18 16:59:03;;;;;;;;;;;;;;;17.96;57.38184;102815.9;;;;-70
2023/04/18 17:04:03;;;;;;;;;;;;;;;17.72;57.26074;102810.6;;;;-69
2023/04/18 17:09:01;;;;;;;11.9;8.1;;;;;;;;;;;;;-76
2023/04/18 17:09:15;;;;;;;;;;;;;;;17.57;57.38672;102806.2;;;;-73
2023/04/18 17:14:07;;;;;;;;;;;;;;;17.48;57.28613;102809.5;;;;-70
2023/04/18 17:19:03;;;;;;;;;;;;;;;17.24;57.66211;102811.5;;;;-72
2023/04/18 17:24:05;;;;;;;;;;;;;;;17.02;58.1875;102807.2;;;;-67
2023/04/18 17:29:03;;;;;;;;;;;;;;;16.82;58.77051;102813.1;;;;-70
2023/04/18 17:34:03;;;;;;;;;;;;;;;16.6;60.0293;102817.9;;;;-68
2023/04/18 17:39:04;;;;;;;10.7;6.9;;;;;;;;;;;;;-70
2023/04/18 17:39:16;;;;;;;;;;;;;;;16.45;60.42578;102822.5;;;;-71
2023/04/18 17:44:03;;;;;;;;;;;;;;;16.3;59.55859;102819.2;;;;-69
2023/04/18 17:49:03;;;;;;;;;;;;;;;16.14;60.16895;102826.2;;;;-69
2023/04/18 17:54:04;;;;;;;;;;;;;;;15.92;59.87891;102818.6;;;;-70
2023/04/18 17:59:03;;;;;;;;;;;;;;;15.75;60.05957;102823.5;;;;-68
2023/04/18 18:04:03;;;;;;;;;;;;;;;15.59;59.91406;102825;;;;-70
2023/04/18 18:08:59;;;;;;;7.9;5.4;;;;;;;;;;;;;-70
2023/04/18 18:09:12;;;;;;;;;;;;;;;15.39;60.50586;102829.4;;;;-70
2023/04/18 18:14:03;;;;;;;;;;;;;;;15.23;60.31543;102835.9;;;;-73
2023/04/18 18:19:06;;;;;;;;;;;;;;;15.05;60.51465;102840;;;;-69
2023/04/18 18:24:03;;;;;;;;;;;;;;;14.85;60.9043;102842;;;;-71
2023/04/18 18:29:08;;;;;;;;;;;;;;;14.66;61.83398;102842.8;;;;-68
2023/04/18 18:34:03;;;;;;;;;;;;;;;14.47;61.33398;102848.1;;;;-71
2023/04/18 18:39:02;;;;;;;9.9;5.9;;;;;;;;;;;;;-70
2023/04/18 18:39:13;;;;;;;;;;;;;;;14.24;61.43848;102852.3;;;;-71
2023/04/18 18:44:03;;;;;;;;;;;;;;;14.08;61.80664;102856.6;;;;-70
2023/04/18 18:49:03;;;;;;;;;;;;;;;13.91;62.62402;102860.7;;;;-70
2023/04/18 18:54:03;;;;;;;;;;;;;;;13.7;61.82129;102872.4;;;;-73
2023/04/18 18:59:03;;;;;;;;;;;;;;;13.49;62.17285;102871.1;;;;-72
2023/04/18 19:04:03;;;;;;;;;;;;;;;13.33;62.46289;102876.6;;;;-71
2023/04/18 19:09:04;;;;;;;;;;;;;;;13.18;63.15723;102880;;;;-70
2023/04/18 19:09:13;;;;;;;11.3;6;;;;;;;;;;;;;-70
2023/04/18 19:14:03;;;;;;;;;;;;;;;12.97;63.91016;102881.3;;;;-72
2023/04/18 19:19:03;;;;;;;;;;;;;;;12.78;63.29004;102892.8;;;;-71
2023/04/18 19:24:03;;;;;;;;;;;;;;;12.63;63.16895;102903.6;;;;-71
2023/04/18 19:29:03;;;;;;;;;;;;;;;12.52;63.38867;102906.5;;;;-69
2023/04/18 19:34:03;;;;;;;;;;;;;;;12.38;63.44434;102903.2;;;;-70
2023/04/18 19:39:03;;;;;;;;;;;;;;;12.26;63.71875;102912.1;;;;-69
2023/04/18 19:39:20;;;;;;;12;6.8;;;;;;;;;;;;;-69
2023/04/18 19:44:03;;;;;;;;;;;;;;;12.1;63.83984;102917.3;;;;-69
2023/04/18 19:49:03;;;;;;;;;;;;;;;11.99;64.04785;102925.9;;;;-71
2023/04/18 19:54:03;;;;;;;;;;;;;;;11.89;64.02148;102924.6;;;;-70
2023/04/18 19:59:04;;;;;;;;;;;;;;;11.74;64.5127;102928.4;;;;-70
2023/04/18 20:04:03;;;;;;;;;;;;;;;11.64;64.83105;102930;;;;-71
2023/04/18 20:09:04;;;;;;;;;;;;;;;11.54;64.88379;102932.9;;;;-69
2023/04/18 20:09:16;;;;;;;14.1;7.4;;;;;;;;;;;;;-69
2023/04/18 20:14:03;;;;;;;;;;;;;;;11.42;65.24512;102940.9;;;;-70
2023/04/18 20:19:04;;;;;;;;;;;;;;;11.36;64.92285;102938.2;;;;-70
2023/04/18 20:24:04;;;;;;;;;;;;;;;11.24;65.32813;102934.6;;;;-70
2023/04/18 20:29:03;;;;;;;;;;;;;;;11.14;65.46875;102933.8;;;;-69
2023/04/18 20:34:05;;;;;;;;;;;;;;;11.08;65.58301;102941.8;;;;-70
2023/04/18 20:39:05;;;;;;;;;;;;;;;10.98;65.95703;102952.5;;;;-69
2023/04/18 20:39:15;;;;;;;12.6;7.2;;;;;;;;;;;;;-69
2023/04/18 20:44:05;;;;;;;;;;;;;;;10.87;66.05176;102945.9;;;;-68
2023/04/18 20:49:03;;;;;;;;;;;;;;;10.79;66.61621;102942.7;;;;-70
2023/04/18 20:54:03;;;;;;;;;;;;;;;10.74;66.4541;102952.9;;;;-71
2023/04/18 20:59:03;;;;;;;;;;;;;;;10.64;66.68457;102957.2;;;;-71
2023/04/18 21:04:03;;;;;;;;;;;;;;;10.56;66.7041;102956.5;;;;-70
2023/04/18 21:09:03;;;;;;;;;;;;;;;10.5;67.00684;102954.9;;;;-70
2023/04/18 21:09:17;;;;;;;14.7;6.3;;;;;;;;;;;;;-70
2023/04/18 21:14:05;;;;;;;;;;;;;;;10.43;66.95215;102961.5;;;;-69
2023/04/18 21:19:03;;;;;;;;;;;;;;;10.38;67.17676;102965.7;;;;-70
2023/04/18 21:24:04;;;;;;;;;;;;;;;10.28;67.33984;102969;;;;-71
2023/04/18 21:29:04;;;;;;;;;;;;;;;10.25;67.46875;102976.7;;;;-70
2023/04/18 21:34:04;;;;;;;;;;;;;;;10.18;67.19043;102972.7;;;;-70
2023/04/18 21:39:04;;;;;;;;;;;;;;;10.1;67.6123;102970.3;;;;-69
2023/04/18 21:39:14;;;;;;;10.9;6;;;;;;;;;;;;;-70
2023/04/18 21:44:04;;;;;;;;;;;;;;;10.02;67.66602;102970.9;;;;-69
2023/04/18 21:49:03;;;;;;;;;;;;;;;9.98;67.8916;102972.6;;;;-69
2023/04/18 21:54:03;;;;;;;;;;;;;;;9.9;67.96973;102974.2;;;;-69
2023/04/18 21:59:03;;;;;;;;;;;;;;;9.83;68.22461;102971.4;;;;-69
2023/04/18 22:04:04;;;;;;;;;;;;;;;9.79;68.32813;102967.4;;;;-69
2023/04/18 22:09:07;;;;;;;;;;;;;;;9.7;68.4248;102964.7;;;;-69
2023/04/18 22:09:20;;;;;;;9.7;5.5;;;;;;;;;;;;;-69
2023/04/18 22:14:04;;;;;;;;;;;;;;;9.66;68.60742;102958;;;;-70
2023/04/18 22:19:04;;;;;;;;;;;;;;;9.64;68.65918;102958.3;;;;-70
2023/04/18 22:24:03;;;;;;;;;;;;;;;9.62;68.68848;102956.3;;;;-68
2023/04/18 22:29:05;;;;;;;;;;;;;;;9.55;68.70117;102962.7;;;;-68
2023/04/18 22:34:03;;;;;;;;;;;;;;;9.5;68.75977;102960;;;;-69
2023/04/18 22:39:03;;;;;;;;;;;;;;;9.45;69.11719;102961.8;;;;-69
2023/04/18 22:39:18;;;;;;;10.1;4.9;;;;;;;;;;;;;-69
2023/04/18 22:44:03;;;;;;;;;;;;;;;9.43;68.88086;102964.1;;;;-71
2023/04/18 22:49:04;;;;;;;;;;;;;;;9.4;69.00879;102967;;;;-72
2023/04/18 22:54:03;;;;;;;;;;;;;;;9.35;69.12305;102968.6;;;;-71
2023/04/18 22:59:03;;;;;;;;;;;;;;;9.28;69.62207;102970.1;;;;-72
2023/04/18 23:04:03;;;;;;;;;;;;;;;9.25;69.25098;102970.4;;;;-69
2023/04/18 23:09:03;;;;;;;;;;;;;;;9.2;69.44141;102972.6;;;;-70
2023/04/18 23:09:21;;;;;;;9.4;5.4;;;;;;;;;;;;;-69
2023/04/18 23:14:03;;;;;;;;;;;;;;;9.19;69.37402;102979.1;;;;-69
2023/04/18 23:19:03;;;;;;;;;;;;;;;9.14;69.77539;102981.4;;;;-69
2023/04/18 23:24:03;;;;;;;;;;;;;;;9.09;70.12207;102980.9;;;;-70
2023/04/18 23:29:03;;;;;;;;;;;;;;;9.07;70.04102;102975.5;;;;-70
2023/04/18 23:34:03;;;;;;;;;;;;;;;9.04;70.1123;102980.2;;;;-69
2023/04/18 23:39:03;;;;;;;;;;;;;;;9.01;70.05371;102978.8;;;;-69
2023/04/18 23:39:20;;;;;;;10.2;5.6;;;;;;;;;;;;;-68
2023/04/18 23:44:03;;;;;;;;;;;;;;;8.96;70.31055;102977.8;;;;-69
2023/04/18 23:49:03;;;;;;;;;;;;;;;8.93;70.35059;102984.5;;;;-69
2023/04/18 23:54:03;;;;;;;;;;;;;;;8.92;70.44824;102977.8;;;;-71
2023/04/18 23:59:06;;;;;;;;;;;;;;;8.88;70.65137;102973.2;;;;-69
